createdAt,value
2022-10-22T00:00:33.076Z,64.96
2022-10-22T00:05:40.181Z,64.97
2022-10-22T00:10:47.476Z,65.31
2022-10-22T00:15:54.587Z,65.31
2022-10-22T00:21:01.669Z,65.04
2022-10-22T00:26:09.104Z,65.47
2022-10-22T00:31:16.518Z,65.25
2022-10-22T00:36:23.810Z,65.01
2022-10-22T00:41:31.047Z,65.21
2022-10-22T00:46:38.354Z,65.52
2022-10-22T00:51:45.654Z,65.54
2022-10-22T00:56:52.720Z,65.26
2022-10-22T01:01:59.985Z,65.60
2022-10-22T01:07:07.724Z,65.31
2022-10-22T01:12:25.745Z,65.46
2022-10-22T01:17:40.587Z,65.68
2022-10-22T01:22:57.034Z,65.49
2022-10-22T01:28:17.664Z,65.51
2022-10-22T01:33:28.594Z,65.58
2022-10-22T01:38:36.202Z,65.40
2022-10-22T01:43:43.478Z,65.62
2022-10-22T01:49:04.039Z,65.81
2022-10-22T01:54:21.795Z,65.56
2022-10-22T01:59:41.903Z,65.92
2022-10-22T02:04:56.561Z,65.78
2022-10-22T02:10:04.713Z,66.04
2022-10-22T02:15:14.455Z,66.01
2022-10-22T02:20:26.635Z,65.84
2022-10-22T02:25:37.329Z,66.15
2022-10-22T02:30:50.505Z,66.31
2022-10-22T02:36:00.844Z,66.11
2022-10-22T02:41:08.447Z,66.28
2022-10-22T02:46:16.455Z,66.64
2022-10-22T02:51:23.460Z,66.55
2022-10-22T02:56:30.453Z,66.64
2022-10-22T03:01:37.370Z,66.76
2022-10-22T03:06:45.393Z,66.73
2022-10-22T03:11:52.705Z,66.98
2022-10-22T03:16:59.861Z,67.12
2022-10-22T03:22:11.579Z,67.25
2022-10-22T03:27:21.404Z,67.46
2022-10-22T03:32:28.342Z,67.57
2022-10-22T03:37:36.492Z,67.74
2022-10-22T03:42:44.365Z,67.92
2022-10-22T03:47:51.563Z,67.70
2022-10-22T03:52:58.553Z,68.17
2022-10-22T03:58:05.363Z,68.03
2022-10-22T04:03:13.018Z,68.30
2022-10-22T04:08:20.366Z,68.28
2022-10-22T04:13:28.123Z,68.13
2022-10-22T04:18:34.952Z,68.16
2022-10-22T04:23:46.099Z,68.31
2022-10-22T04:28:54.245Z,68.31
2022-10-22T04:34:02.929Z,68.58
2022-10-22T04:39:09.905Z,68.63
2022-10-22T04:44:17.419Z,68.50
2022-10-22T04:49:25.352Z,68.73
2022-10-22T04:54:33.250Z,68.49
2022-10-22T04:59:40.386Z,68.76
2022-10-22T05:04:48.784Z,68.94
2022-10-22T05:09:56.791Z,68.76
2022-10-22T05:15:03.787Z,68.84
2022-10-22T05:20:12.766Z,68.94
2022-10-22T05:25:19.744Z,68.98
2022-10-22T05:30:26.764Z,69.28
2022-10-22T05:35:33.787Z,69.43
2022-10-22T05:40:40.959Z,69.56
2022-10-22T05:45:47.863Z,69.61
2022-10-22T05:50:54.782Z,69.44
2022-10-22T05:56:03.686Z,69.67
2022-10-22T06:01:13.823Z,69.72
2022-10-22T06:06:27.773Z,69.85
2022-10-22T06:11:35.433Z,70.00
2022-10-22T06:16:42.625Z,69.79
2022-10-22T06:21:50.265Z,70.12
2022-10-22T06:26:57.365Z,69.88
2022-10-22T06:32:04.266Z,70.27
2022-10-22T06:37:11.500Z,70.36
2022-10-22T06:42:18.405Z,70.49
2022-10-22T06:47:28.113Z,70.21
2022-10-22T06:52:35.105Z,70.37
2022-10-22T06:57:42.309Z,70.31
2022-10-22T07:02:57.729Z,70.47
2022-10-22T07:08:06.889Z,70.65
2022-10-22T07:13:13.844Z,70.81
2022-10-22T07:18:20.802Z,70.66
2022-10-22T07:23:28.233Z,70.98
2022-10-22T07:28:35.270Z,70.91
2022-10-22T07:33:42.714Z,70.87
2022-10-22T07:38:51.033Z,70.54
2022-10-22T07:43:58.203Z,70.84
2022-10-22T07:49:05.191Z,71.01
2022-10-22T07:54:12.457Z,71.08
2022-10-22T07:59:19.545Z,71.16
2022-10-22T08:04:26.370Z,70.98
2022-10-22T08:09:33.852Z,71.21
2022-10-22T08:14:41.081Z,71.31
2022-10-22T08:19:48.074Z,71.21
2022-10-22T08:24:55.129Z,71.36
2022-10-22T08:30:02.284Z,71.32
2022-10-22T08:35:12.982Z,71.19
2022-10-22T08:40:30.631Z,71.26
2022-10-22T08:45:44.092Z,71.60
2022-10-22T08:50:54.575Z,71.29
2022-10-22T08:56:02.064Z,71.69
2022-10-22T09:01:13.604Z,71.47
2022-10-22T09:06:23.991Z,71.47
2022-10-22T09:11:36.445Z,71.53
2022-10-22T09:16:58.057Z,71.64
2022-10-22T09:22:14.669Z,71.61
2022-10-22T09:27:24.371Z,71.77
2022-10-22T09:32:33.790Z,71.58
2022-10-22T09:37:52.432Z,71.81
2022-10-22T09:42:59.384Z,71.61
2022-10-22T09:48:21.402Z,71.62
2022-10-22T09:53:31.011Z,71.72
2022-10-22T09:58:49.664Z,71.89
2022-10-22T10:04:08.357Z,71.96
2022-10-22T10:09:20.875Z,71.87
2022-10-22T10:14:38.943Z,71.55
2022-10-22T10:20:12.824Z,71.74
2022-10-22T10:25:33.910Z,71.93
2022-10-22T10:30:49.764Z,72.16
2022-10-22T10:36:03.989Z,72.09
2022-10-22T10:41:24.633Z,71.90
2022-10-22T10:46:37.631Z,72.04
2022-10-22T10:51:55.510Z,72.05
2022-10-22T10:57:09.954Z,72.10
2022-10-22T11:03:04.826Z,71.95
2022-10-22T11:08:19.409Z,72.03
2022-10-22T11:13:33.565Z,72.38
2022-10-22T11:18:43.810Z,72.08
2022-10-22T11:23:57.613Z,72.23
2022-10-22T11:29:06.872Z,72.26
2022-10-22T11:34:33.222Z,72.61
2022-10-22T11:39:47.030Z,72.72
2022-10-22T11:45:04.596Z,72.67
2022-10-22T11:50:26.434Z,72.76
2022-10-22T11:55:48.899Z,73.01
2022-10-22T12:00:57.202Z,72.89
2022-10-22T12:06:23.576Z,72.55
2022-10-22T12:11:37.961Z,72.93
2022-10-22T12:16:56.289Z,72.69
2022-10-22T12:22:14.692Z,72.70
2022-10-22T12:27:26.771Z,72.95
2022-10-22T12:32:38.072Z,72.89
2022-10-22T12:37:45.169Z,73.11
2022-10-22T12:42:55.359Z,73.04
2022-10-22T12:48:05.112Z,73.10
2022-10-22T12:53:16.932Z,73.06
2022-10-22T12:58:28.212Z,73.12
2022-10-22T13:03:38.911Z,73.06
2022-10-22T13:08:46.545Z,73.07
2022-10-22T13:14:02.890Z,73.29
2022-10-22T13:19:23.331Z,73.19
2022-10-22T13:24:31.391Z,73.39
2022-10-22T13:29:38.721Z,73.40
2022-10-22T13:34:47.612Z,73.47
2022-10-22T13:39:54.720Z,73.16
2022-10-22T13:45:01.553Z,73.21
2022-10-22T13:50:17.771Z,73.30
2022-10-22T13:55:27.153Z,73.24
2022-10-22T14:00:34.778Z,73.35
2022-10-22T14:05:41.790Z,73.64
2022-10-22T14:10:49.691Z,73.42
2022-10-22T14:15:56.866Z,73.36
2022-10-22T14:21:07.791Z,73.56
2022-10-22T14:26:30.676Z,73.45
2022-10-22T14:31:38.467Z,73.87
2022-10-22T14:36:45.553Z,73.78
2022-10-22T14:41:52.599Z,73.58
2022-10-22T14:46:59.978Z,73.79
2022-10-22T14:52:10.533Z,73.63
2022-10-22T14:57:20.193Z,73.60
2022-10-22T15:02:27.923Z,73.90
2022-10-22T15:07:35.383Z,73.79
2022-10-22T15:12:42.851Z,73.70
2022-10-22T15:17:50.506Z,73.99
2022-10-22T15:22:58.282Z,73.76
2022-10-22T15:28:09.766Z,74.03
2022-10-22T15:33:17.462Z,73.78
2022-10-22T15:43:37.659Z,74.14
2022-10-22T15:48:45.816Z,73.87
2022-10-22T15:53:56.076Z,74.07
2022-10-22T15:59:04.658Z,73.89
2022-10-22T16:04:12.608Z,74.00
2022-10-22T16:09:22.406Z,73.85
2022-10-22T16:14:30.722Z,74.15
2022-10-22T16:19:38.733Z,73.98
2022-10-22T16:24:47.301Z,74.09
2022-10-22T16:29:55.213Z,74.01
2022-10-22T16:35:03.224Z,74.04
2022-10-22T16:40:13.423Z,74.15
2022-10-22T16:45:22.998Z,74.15
2022-10-22T16:50:31.548Z,74.08
2022-10-22T16:55:42.252Z,74.26
2022-10-22T17:00:50.410Z,74.26
2022-10-22T17:06:00.039Z,74.28
2022-10-22T17:11:12.177Z,74.39
2022-10-22T17:16:22.062Z,74.49
2022-10-22T17:21:30.597Z,74.38
2022-10-22T17:26:38.903Z,74.33
2022-10-22T17:31:46.915Z,74.50
2022-10-22T17:36:56.255Z,74.32
2022-10-22T17:42:04.484Z,74.68
2022-10-22T17:47:12.680Z,74.58
2022-10-22T17:52:20.788Z,74.83
2022-10-22T17:57:29.817Z,74.42
2022-10-22T18:02:38.288Z,74.45
2022-10-22T18:07:46.500Z,74.44
2022-10-22T18:12:55.156Z,74.63
2022-10-22T18:18:03.573Z,75.03
2022-10-22T18:23:11.361Z,75.19
2022-10-22T18:28:20.378Z,75.10
2022-10-22T18:33:28.664Z,75.56
2022-10-22T18:38:39.004Z,75.36
2022-10-22T18:43:52.226Z,75.61
2022-10-22T18:49:01.422Z,75.66
2022-10-22T18:54:22.592Z,75.80
2022-10-22T18:59:33.287Z,75.68
2022-10-22T19:04:41.890Z,75.62
2022-10-22T19:09:50.216Z,75.80
2022-10-22T19:14:59.299Z,75.46
2022-10-22T19:20:08.371Z,75.60
2022-10-22T19:25:16.400Z,75.57
2022-10-22T19:30:24.860Z,75.43
2022-10-22T19:35:33.922Z,75.61
2022-10-22T19:40:44.653Z,75.60
2022-10-22T19:45:53.164Z,75.63
2022-10-22T19:51:04.902Z,75.45
2022-10-22T19:56:14.496Z,75.75
2022-10-22T20:01:22.807Z,75.82
2022-10-22T20:06:30.895Z,75.66
2022-10-22T20:11:38.915Z,75.57
2022-10-22T20:16:47.041Z,75.92
2022-10-22T20:21:54.981Z,75.92
2022-10-22T20:27:27.810Z,76.01
2022-10-22T20:32:38.972Z,75.62
2022-10-22T20:37:46.927Z,75.76
2022-10-22T20:42:54.996Z,75.50
2022-10-22T20:48:03.197Z,75.68
2022-10-22T20:53:14.634Z,75.67
2022-10-22T20:58:26.853Z,75.69
2022-10-22T21:03:35.244Z,75.51
2022-10-22T21:08:44.156Z,75.29
2022-10-22T21:13:51.894Z,75.88
2022-10-22T21:19:00.142Z,75.81
2022-10-22T21:24:09.299Z,75.50
2022-10-22T21:29:17.432Z,75.80
2022-10-22T21:34:24.974Z,75.91
2022-10-22T21:39:35.515Z,76.05
2022-10-22T21:44:45.468Z,75.83
2022-10-22T21:49:53.552Z,75.71
2022-10-22T21:55:01.980Z,76.02
2022-10-22T22:00:13.270Z,75.72
2022-10-22T22:05:27.027Z,75.79
2022-10-22T22:10:35.135Z,76.04
2022-10-22T22:15:42.555Z,76.22
2022-10-22T22:20:49.776Z,76.21
2022-10-22T22:26:02.359Z,75.74
2022-10-22T22:31:18.519Z,75.95
2022-10-22T22:36:25.806Z,76.02
2022-10-22T22:41:32.780Z,76.19
2022-10-22T22:46:40.176Z,76.19
2022-10-22T22:51:47.721Z,76.62
2022-10-22T22:56:54.776Z,76.23
2022-10-22T23:02:02.417Z,76.38
2022-10-22T23:07:09.941Z,76.50
2022-10-22T23:12:17.127Z,76.59
2022-10-22T23:17:24.416Z,76.83
2022-10-22T23:22:31.688Z,76.88
2022-10-22T23:27:39.389Z,76.82
2022-10-22T23:32:46.721Z,77.22
2022-10-22T23:37:54.058Z,77.02
2022-10-22T23:43:01.404Z,77.03
2022-10-22T23:48:09.076Z,77.51
2022-10-22T23:53:16.318Z,77.36
2022-10-22T23:58:23.731Z,77.18
